Terminal Aerodrome Forecast
Issued by NWS

Home | Current Version | Previous Version | Text Only | Print | Product List | Glossary Off
Versions: 1 2 3 4 5 6 7 8 9 10 11 12 13 14 15 16

781
FTUS43 KICT 171732
TAFSLN
TAF
KSLN 171732Z 1718/1818 31006KT P6SM BKN120
     FM172000 27006KT P6SM SCT100
     FM180000 20005KT P6SM FEW250
      AMD NOT SKED=

USA.gov is the U.S. government's official web portal to all federal, state and local government web resources and services.